Mary Alice — WCX9570 — position and weather

sailwx.info

Track history (hours):
 
Tides and Currents Weather Stations Pressure Air Temp Water Temp Dewpoint Dewpoint Depression Visibility Wind Speed Wind Dir Waves Ship Positions

Mary Alice

Owner: Donjon Marine Co., Inc., HILLSIDE, NJ. More information available from US FCC via Universal Licensing System and Coast Guard Vessel Documentation Center.

Last reported at 2017-Jan-22 05:33 UTC. Time now 2017-Jan-22 05:55 UTC.
Position N 40°42' W 074°09'.

Length 21 m; draft 4.8 m.

Type: Towing. MMSI: 366744020.

Date/timePositionNaut miles runAvg speedWind from/ knotsBaromVisibWave heightAir tempDewpointWater temp
2017-Jan-22 05:33N 40°42' W 074°09'0 0.0
2017-Jan-22 04:33N 40°42' W 074°09'0 0.0
2017-Jan-22 03:33N 40°42' W 074°09'0 0.0
2017-Jan-22 02:33N 40°42' W 074°09'0 0.0
2017-Jan-22 01:33N 40°42' W 074°09'0 0.0
2017-Jan-22 00:33N 40°42' W 074°09'0 0.0
2017-Jan-21 23:33N 40°42' W 074°09'0 0.0
2017-Jan-21 22:33N 40°42' W 074°09'0 0.0
2017-Jan-21 21:33N 40°42' W 074°09'0 0.0
2017-Jan-21 20:33N 40°42' W 074°09'0 0.1
2017-Jan-21 19:33N 40°42' W 074°09'1 1.0
2017-Jan-21 18:33N 40°41' W 074°08'3 3.0
2017-Jan-21 17:33N 40°39' W 074°06'4 4.4
2017-Jan-21 16:33N 40°35' W 074°02'5 4.7
2017-Jan-21 15:33N 40°31' W 073°59'6 4.6
2017-Jan-21 14:13N 40°28' W 073°53'3 5.2
2017-Jan-21 13:33N 40°24' W 073°53'38 5.2
2017-Jan-21 06:16N 39°47' W 073°56'4 5.2
2017-Jan-21 05:33N 39°43' W 073°57'5 5.2
2017-Jan-21 04:31N 39°38' W 073°60'5 5.1
2017-Jan-21 03:32N 39°34' W 074°03'22 5.0
2017-Jan-20 23:04N 39°16' W 074°21'5 5.1
2017-Jan-20 22:06N 39°12' W 074°25'3 5.2
2017-Jan-20 21:29N 39°10' W 074°28'5 5.2
2017-Jan-20 20:33N 39°06' W 074°32'5 5.1
2017-Jan-20 19:33N 39°02' W 074°36'5 4.9
2017-Jan-20 18:32N 38°59' W 074°41'5 4.8
2017-Jan-20 17:31N 38°55' W 074°45'5 4.8
2017-Jan-20 16:25N 38°51' W 074°49'4 4.4
2017-Jan-20 15:33N 38°49' W 074°53'5 4.7
2017-Jan-20 14:33N 38°48' W 074°59'14 6.0
2017-Jan-20 12:17N 38°60' W 075°08'5 6.3
2017-Jan-20 11:33N 39°04' W 075°11'8 6.3
2017-Jan-20 10:17N 39°11' W 075°16'4 5.5
2017-Jan-20 09:33N 39°14' W 075°19'5 4.6
2017-Jan-20 08:33N 39°18' W 075°23'4 4.2
2017-Jan-20 07:33N 39°21' W 075°26'4 4.5
2017-Jan-20 06:33N 39°24' W 075°30'5 5.3
2017-Jan-20 05:33N 39°29' W 075°34'6 6.3
2017-Jan-20 04:33N 39°35' W 075°34'6 5.9
2017-Jan-20 03:33N 39°41' W 075°31'7 7.0
2017-Jan-20 02:33N 39°47' W 075°27'7 6.9
2017-Jan-20 01:33N 39°51' W 075°20'6 6.0
2017-Jan-20 00:33N 39°52' W 075°12'4 4.3
2017-Jan-19 23:33N 39°55' W 075°08'4 3.7
2017-Jan-19 22:33N 39°58' W 075°06'4 3.7
2017-Jan-19 21:33N 40°01' W 075°02'4 4.1
2017-Jan-19 20:33N 40°03' W 074°58'5 5.0
2017-Jan-19 19:33N 40°05' W 074°52'5 5.0
2017-Jan-19 18:31N 40°08' W 074°46'1 0.2
2017-Jan-19 14:25N 40°08' W 074°45'0 0.0
2017-Jan-19 12:06N 40°08' W 074°45'0 0.0
2017-Jan-19 10:11N 40°08' W 074°45'0 0.0
2017-Jan-19 09:29N 40°08' W 074°45'4 1.8
2017-Jan-19 07:32N 40°07' W 074°50'2 1.9
2017-Jan-19 06:29N 40°07' W 074°47'2 0.2
2017-Jan-18 20:07N 40°08' W 074°45'0 0.1
2017-Jan-18 19:20N 40°08' W 074°45'0 0.0
2017-Jan-18 18:18N 40°08' W 074°45'0 0.1
2017-Jan-18 17:30N 40°08' W 074°45'0 0.0
2017-Jan-18 16:33N 40°08' W 074°45'0 0.0
2017-Jan-18 13:19N 40°08' W 074°45'0 0.0
2017-Jan-18 12:24N 40°08' W 074°45'0 0.0
2017-Jan-18 11:33N 40°08' W 074°45'0 0.0
2017-Jan-18 10:33N 40°08' W 074°45'0 0.0
2017-Jan-18 04:14N 40°08' W 074°45'0 0.0
2017-Jan-18 00:27N 40°08' W 074°45'0 0.0
2017-Jan-17 23:06N 40°08' W 074°45'0 0.0
2017-Jan-17 22:28N 40°08' W 074°45'3 0.4
2017-Jan-17 15:33N 40°08' W 074°49'5 4.5
2017-Jan-17 14:33N 40°05' W 074°53'5 4.5
2017-Jan-17 13:31N 40°03' W 074°59'4 4.0
2017-Jan-17 12:33N 40°00' W 075°03'4 4.1
2017-Jan-17 11:33N 39°58' W 075°07'5 4.8
2017-Jan-17 10:33N 39°53' W 075°08'5 5.5
2017-Jan-17 09:33N 39°51' W 075°15'4 4.0
2017-Jan-17 08:33N 39°51' W 075°20'6 6.4
2017-Jan-17 07:33N 39°47' W 075°27'7 7.2
2017-Jan-17 06:33N 39°41' W 075°31'6 5.8
2017-Jan-17 05:33N 39°35' W 075°33'7 6.9
2017-Jan-17 04:33N 39°28' W 075°34'7 7.1
2017-Jan-17 03:33N 39°23' W 075°28'6 5.7
2017-Jan-17 02:33N 39°18' W 075°23'5 5.0
2017-Jan-17 01:33N 39°15' W 075°19'4 4.4
2017-Jan-17 00:32N 39°11' W 075°16'4 4.3
2017-Jan-16 23:33N 39°07' W 075°13'4 4.0
2017-Jan-16 22:33N 39°04' W 075°10'4 3.7
2017-Jan-16 21:33N 39°00' W 075°09'1 1.4
2017-Jan-16 20:33N 38°59' W 075°08'1 0.8
2017-Jan-16 19:33N 38°58' W 075°08'4 1.6
2017-Jan-16 17:22N 38°57' W 075°04'2 2.3
2017-Jan-16 16:32N 38°55' W 075°03'3 2.6
2017-Jan-16 15:33N 38°52' W 075°03'58 2.8
2017-Jan-15 19:22N 39°31' W 074°08'4 4.9
2017-Jan-15 18:31N 39°35' W 074°07'48 5.4
2017-Jan-15 09:33N 40°22' W 073°54'6 5.9
2017-Jan-15 08:33N 40°28' W 073°55'7 6.6
2017-Jan-15 07:33N 40°32' W 074°01'6 6.4
2017-Jan-15 06:33N 40°38' W 074°03'4 4.1
2017-Jan-15 05:33N 40°40' W 074°09'2 1.8
2017-Jan-15 04:33N 40°41' W 074°08'1 1.0
2017-Jan-15 03:33N 40°42' W 074°09'0 0.0
2017-Jan-15 02:33N 40°42' W 074°09'0 0.0
2017-Jan-15 01:32N 40°42' W 074°09'0 0.0
2017-Jan-15 00:33N 40°42' W 074°09'0 0.0
2017-Jan-14 23:33N 40°42' W 074°09'0 0.0
2017-Jan-14 22:33N 40°42' W 074°09'0 0.0
2017-Jan-14 21:33N 40°42' W 074°09'0 0.0
2017-Jan-14 20:33N 40°42' W 074°09'0 0.0
2017-Jan-14 19:33N 40°42' W 074°09'0 0.0
2017-Jan-14 18:33N 40°42' W 074°09'0 0.0
2017-Jan-14 17:33N 40°42' W 074°09'0 0.0
2017-Jan-14 16:33N 40°42' W 074°09'0 0.0
2017-Jan-14 15:33N 40°42' W 074°09'0 0.0
2017-Jan-14 14:33N 40°42' W 074°09'0 0.0
2017-Jan-14 13:33N 40°42' W 074°09'0 0.0
2017-Jan-14 12:33N 40°42' W 074°09'0 0.0
2017-Jan-14 11:33N 40°42' W 074°09'0 0.0
2017-Jan-14 10:33N 40°42' W 074°09'0 0.0
2017-Jan-14 09:33N 40°42' W 074°09'0 0.0
2017-Jan-14 08:33N 40°42' W 074°09'0 0.0
2017-Jan-14 07:33N 40°42' W 074°09'0 0.0
2017-Jan-14 06:33N 40°42' W 074°09'0 0.1
2017-Jan-14 05:27N 40°42' W 074°09'3 3.7
2017-Jan-14 04:33N 40°39' W 074°09'0 0.5
2017-Jan-14 03:34N 40°39' W 074°08'4 0.9
2017-Jan-13 23:33N 40°42' W 074°09'0 0.0
2017-Jan-13 22:33N 40°42' W 074°09'0 0.0
2017-Jan-13 21:33N 40°42' W 074°09'0 0.0
2017-Jan-13 20:33N 40°42' W 074°09'0 0.0
2017-Jan-13 19:33N 40°42' W 074°09'0 0.1
2017-Jan-13 18:33N 40°42' W 074°09'1 0.8
2017-Jan-13 17:33N 40°41' W 074°08'0 0.0
2017-Jan-13 16:33N 40°41' W 074°08'0 0.0
2017-Jan-13 15:33N 40°41' W 074°08'1 0.7
2017-Jan-13 14:33N 40°42' W 074°09'0 0.1
2017-Jan-13 13:34N 40°42' W 074°09'0 0.0
2017-Jan-13 12:33N 40°42' W 074°09'0 0.0
2017-Jan-13 11:33N 40°42' W 074°09'0 0.0
2017-Jan-13 10:33N 40°42' W 074°09'0 0.0
2017-Jan-13 09:34N 40°42' W 074°09'0 0.0
2017-Jan-13 08:33N 40°42' W 074°09'0 0.0
2017-Jan-13 07:34N 40°42' W 074°09'0 0.0
2017-Jan-13 06:33N 40°42' W 074°09'0 0.0
2017-Jan-13 05:34N 40°42' W 074°09'0 0.0
2017-Jan-13 04:33N 40°42' W 074°09'0 0.0
2017-Jan-13 03:34N 40°42' W 074°09'0 0.0
2017-Jan-13 02:33N 40°42' W 074°09'0 0.0
2017-Jan-13 01:33N 40°42' W 074°09'0 0.0
2017-Jan-13 00:34N 40°42' W 074°09'0 0.0
2017-Jan-12 23:33N 40°42' W 074°09'0 0.0
2017-Jan-12 22:33N 40°42' W 074°09'0 0.0
2017-Jan-12 21:34N 40°42' W 074°09'0 0.0
2017-Jan-12 20:34N 40°42' W 074°09'0 0.0
2017-Jan-12 19:34N 40°42' W 074°09'0 0.0
2017-Jan-12 18:33N 40°42' W 074°09'0 0.0
2017-Jan-12 17:33N 40°42' W 074°09'0 0.0
2017-Jan-12 16:33N 40°42' W 074°09'0 0.0
2017-Jan-12 15:33N 40°42' W 074°09'0 0.0
2017-Jan-12 14:34N 40°42' W 074°09'0 0.0
2017-Jan-12 13:33N 40°42' W 074°09'0 0.0
2017-Jan-12 12:33N 40°42' W 074°09'0 0.0
2017-Jan-12 11:33N 40°42' W 074°09'0 0.0
2017-Jan-12 10:34N 40°42' W 074°09'0 0.0
2017-Jan-12 09:34N 40°42' W 074°09'0 0.0
2017-Jan-12 08:34N 40°42' W 074°09'0 0.0
2017-Jan-12 07:33N 40°42' W 074°09'0 0.0
2017-Jan-12 06:33N 40°42' W 074°09'0 0.0
2017-Jan-12 05:33N 40°42' W 074°09'  
Track history (hours):
 
Tides and Currents Weather Stations Pressure Air Temp Water Temp Dewpoint Dewpoint Depression Visibility Wind Speed Wind Dir Waves Ship Positions

Mary Alice

Owner: Donjon Marine Co., Inc., HILLSIDE, NJ. More information available from US FCC via Universal Licensing System and Coast Guard Vessel Documentation Center.

Last reported at 2017-Jan-22 05:33 UTC. Time now 2017-Jan-22 05:55 UTC.
Position N 40°42' W 074°09'.

Length 21 m; draft 4.8 m.

Type: Towing. MMSI: 366744020.

Date/timePositionNaut miles runAvg speedWind from/ knotsBaromVisibWave heightAir tempDewpointWater temp
2017-Jan-22 05:33N 40°42' W 074°09'0 0.0
2017-Jan-22 04:33N 40°42' W 074°09'0 0.0
2017-Jan-22 03:33N 40°42' W 074°09'0 0.0
2017-Jan-22 02:33N 40°42' W 074°09'0 0.0
2017-Jan-22 01:33N 40°42' W 074°09'0 0.0
2017-Jan-22 00:33N 40°42' W 074°09'0 0.0
2017-Jan-21 23:33N 40°42' W 074°09'0 0.0
2017-Jan-21 22:33N 40°42' W 074°09'0 0.0
2017-Jan-21 21:33N 40°42' W 074°09'0 0.0
2017-Jan-21 20:33N 40°42' W 074°09'0 0.1
2017-Jan-21 19:33N 40°42' W 074°09'1 1.0
2017-Jan-21 18:33N 40°41' W 074°08'3 3.0
2017-Jan-21 17:33N 40°39' W 074°06'4 4.4
2017-Jan-21 16:33N 40°35' W 074°02'5 4.7
2017-Jan-21 15:33N 40°31' W 073°59'6 4.6
2017-Jan-21 14:13N 40°28' W 073°53'3 5.2
2017-Jan-21 13:33N 40°24' W 073°53'38 5.2
2017-Jan-21 06:16N 39°47' W 073°56'4 5.2
2017-Jan-21 05:33N 39°43' W 073°57'5 5.2
2017-Jan-21 04:31N 39°38' W 073°60'5 5.1
2017-Jan-21 03:32N 39°34' W 074°03'22 5.0
2017-Jan-20 23:04N 39°16' W 074°21'5 5.1
2017-Jan-20 22:06N 39°12' W 074°25'3 5.2
2017-Jan-20 21:29N 39°10' W 074°28'5 5.2
2017-Jan-20 20:33N 39°06' W 074°32'5 5.1
2017-Jan-20 19:33N 39°02' W 074°36'5 4.9
2017-Jan-20 18:32N 38°59' W 074°41'5 4.8
2017-Jan-20 17:31N 38°55' W 074°45'5 4.8
2017-Jan-20 16:25N 38°51' W 074°49'4 4.4
2017-Jan-20 15:33N 38°49' W 074°53'5 4.7
2017-Jan-20 14:33N 38°48' W 074°59'14 6.0
2017-Jan-20 12:17N 38°60' W 075°08'5 6.3
2017-Jan-20 11:33N 39°04' W 075°11'8 6.3
2017-Jan-20 10:17N 39°11' W 075°16'4 5.5
2017-Jan-20 09:33N 39°14' W 075°19'5 4.6
2017-Jan-20 08:33N 39°18' W 075°23'4 4.2
2017-Jan-20 07:33N 39°21' W 075°26'4 4.5
2017-Jan-20 06:33N 39°24' W 075°30'5 5.3
2017-Jan-20 05:33N 39°29' W 075°34'6 6.3
2017-Jan-20 04:33N 39°35' W 075°34'6 5.9
2017-Jan-20 03:33N 39°41' W 075°31'7 7.0
2017-Jan-20 02:33N 39°47' W 075°27'7 6.9
2017-Jan-20 01:33N 39°51' W 075°20'6 6.0
2017-Jan-20 00:33N 39°52' W 075°12'4 4.3
2017-Jan-19 23:33N 39°55' W 075°08'4 3.7
2017-Jan-19 22:33N 39°58' W 075°06'4 3.7
2017-Jan-19 21:33N 40°01' W 075°02'4 4.1
2017-Jan-19 20:33N 40°03' W 074°58'5 5.0
2017-Jan-19 19:33N 40°05' W 074°52'5 5.0
2017-Jan-19 18:31N 40°08' W 074°46'1 0.2
2017-Jan-19 14:25N 40°08' W 074°45'0 0.0
2017-Jan-19 12:06N 40°08' W 074°45'0 0.0
2017-Jan-19 10:11N 40°08' W 074°45'0 0.0
2017-Jan-19 09:29N 40°08' W 074°45'4 1.8
2017-Jan-19 07:32N 40°07' W 074°50'2 1.9
2017-Jan-19 06:29N 40°07' W 074°47'2 0.2
2017-Jan-18 20:07N 40°08' W 074°45'0 0.1
2017-Jan-18 19:20N 40°08' W 074°45'0 0.0
2017-Jan-18 18:18N 40°08' W 074°45'0 0.1
2017-Jan-18 17:30N 40°08' W 074°45'0 0.0
2017-Jan-18 16:33N 40°08' W 074°45'0 0.0
2017-Jan-18 13:19N 40°08' W 074°45'0 0.0
2017-Jan-18 12:24N 40°08' W 074°45'0 0.0
2017-Jan-18 11:33N 40°08' W 074°45'0 0.0
2017-Jan-18 10:33N 40°08' W 074°45'0 0.0
2017-Jan-18 04:14N 40°08' W 074°45'0 0.0
2017-Jan-18 00:27N 40°08' W 074°45'0 0.0
2017-Jan-17 23:06N 40°08' W 074°45'0 0.0
2017-Jan-17 22:28N 40°08' W 074°45'3 0.4
2017-Jan-17 15:33N 40°08' W 074°49'5 4.5
2017-Jan-17 14:33N 40°05' W 074°53'5 4.5
2017-Jan-17 13:31N 40°03' W 074°59'4 4.0
2017-Jan-17 12:33N 40°00' W 075°03'4 4.1
2017-Jan-17 11:33N 39°58' W 075°07'5 4.8
2017-Jan-17 10:33N 39°53' W 075°08'5 5.5
2017-Jan-17 09:33N 39°51' W 075°15'4 4.0
2017-Jan-17 08:33N 39°51' W 075°20'6 6.4
2017-Jan-17 07:33N 39°47' W 075°27'7 7.2
2017-Jan-17 06:33N 39°41' W 075°31'6 5.8
2017-Jan-17 05:33N 39°35' W 075°33'7 6.9
2017-Jan-17 04:33N 39°28' W 075°34'7 7.1
2017-Jan-17 03:33N 39°23' W 075°28'6 5.7
2017-Jan-17 02:33N 39°18' W 075°23'5 5.0
2017-Jan-17 01:33N 39°15' W 075°19'4 4.4
2017-Jan-17 00:32N 39°11' W 075°16'4 4.3
2017-Jan-16 23:33N 39°07' W 075°13'4 4.0
2017-Jan-16 22:33N 39°04' W 075°10'4 3.7
2017-Jan-16 21:33N 39°00' W 075°09'1 1.4
2017-Jan-16 20:33N 38°59' W 075°08'1 0.8
2017-Jan-16 19:33N 38°58' W 075°08'4 1.6
2017-Jan-16 17:22N 38°57' W 075°04'2 2.3
2017-Jan-16 16:32N 38°55' W 075°03'3 2.6
2017-Jan-16 15:33N 38°52' W 075°03'58 2.8
2017-Jan-15 19:22N 39°31' W 074°08'4 4.9
2017-Jan-15 18:31N 39°35' W 074°07'48 5.4
2017-Jan-15 09:33N 40°22' W 073°54'6 5.9
2017-Jan-15 08:33N 40°28' W 073°55'7 6.6
2017-Jan-15 07:33N 40°32' W 074°01'6 6.4
2017-Jan-15 06:33N 40°38' W 074°03'4 4.1
2017-Jan-15 05:33N 40°40' W 074°09'2 1.8
2017-Jan-15 04:33N 40°41' W 074°08'1 1.0
2017-Jan-15 03:33N 40°42' W 074°09'0 0.0
2017-Jan-15 02:33N 40°42' W 074°09'0 0.0
2017-Jan-15 01:32N 40°42' W 074°09'0 0.0
2017-Jan-15 00:33N 40°42' W 074°09'0 0.0
2017-Jan-14 23:33N 40°42' W 074°09'0 0.0
2017-Jan-14 22:33N 40°42' W 074°09'0 0.0
2017-Jan-14 21:33N 40°42' W 074°09'0 0.0
2017-Jan-14 20:33N 40°42' W 074°09'0 0.0
2017-Jan-14 19:33N 40°42' W 074°09'0 0.0
2017-Jan-14 18:33N 40°42' W 074°09'0 0.0
2017-Jan-14 17:33N 40°42' W 074°09'0 0.0
2017-Jan-14 16:33N 40°42' W 074°09'0 0.0
2017-Jan-14 15:33N 40°42' W 074°09'0 0.0
2017-Jan-14 14:33N 40°42' W 074°09'0 0.0
2017-Jan-14 13:33N 40°42' W 074°09'0 0.0
2017-Jan-14 12:33N 40°42' W 074°09'0 0.0
2017-Jan-14 11:33N 40°42' W 074°09'0 0.0
2017-Jan-14 10:33N 40°42' W 074°09'0 0.0
2017-Jan-14 09:33N 40°42' W 074°09'0 0.0
2017-Jan-14 08:33N 40°42' W 074°09'0 0.0
2017-Jan-14 07:33N 40°42' W 074°09'0 0.0
2017-Jan-14 06:33N 40°42' W 074°09'0 0.1
2017-Jan-14 05:27N 40°42' W 074°09'3 3.7
2017-Jan-14 04:33N 40°39' W 074°09'0 0.5
2017-Jan-14 03:34N 40°39' W 074°08'4 0.9
2017-Jan-13 23:33N 40°42' W 074°09'0 0.0
2017-Jan-13 22:33N 40°42' W 074°09'0 0.0
2017-Jan-13 21:33N 40°42' W 074°09'0 0.0
2017-Jan-13 20:33N 40°42' W 074°09'0 0.0
2017-Jan-13 19:33N 40°42' W 074°09'0 0.1
2017-Jan-13 18:33N 40°42' W 074°09'1 0.8
2017-Jan-13 17:33N 40°41' W 074°08'0 0.0
2017-Jan-13 16:33N 40°41' W 074°08'0 0.0
2017-Jan-13 15:33N 40°41' W 074°08'1 0.7
2017-Jan-13 14:33N 40°42' W 074°09'0 0.1
2017-Jan-13 13:34N 40°42' W 074°09'0 0.0
2017-Jan-13 12:33N 40°42' W 074°09'0 0.0
2017-Jan-13 11:33N 40°42' W 074°09'0 0.0
2017-Jan-13 10:33N 40°42' W 074°09'0 0.0
2017-Jan-13 09:34N 40°42' W 074°09'0 0.0
2017-Jan-13 08:33N 40°42' W 074°09'0 0.0
2017-Jan-13 07:34N 40°42' W 074°09'0 0.0
2017-Jan-13 06:33N 40°42' W 074°09'0 0.0
2017-Jan-13 05:34N 40°42' W 074°09'0 0.0
2017-Jan-13 04:33N 40°42' W 074°09'0 0.0
2017-Jan-13 03:34N 40°42' W 074°09'0 0.0
2017-Jan-13 02:33N 40°42' W 074°09'0 0.0
2017-Jan-13 01:33N 40°42' W 074°09'0 0.0
2017-Jan-13 00:34N 40°42' W 074°09'0 0.0
2017-Jan-12 23:33N 40°42' W 074°09'0 0.0
2017-Jan-12 22:33N 40°42' W 074°09'0 0.0
2017-Jan-12 21:34N 40°42' W 074°09'0 0.0
2017-Jan-12 20:34N 40°42' W 074°09'0 0.0
2017-Jan-12 19:34N 40°42' W 074°09'0 0.0
2017-Jan-12 18:33N 40°42' W 074°09'0 0.0
2017-Jan-12 17:33N 40°42' W 074°09'0 0.0
2017-Jan-12 16:33N 40°42' W 074°09'0 0.0
2017-Jan-12 15:33N 40°42' W 074°09'0 0.0
2017-Jan-12 14:34N 40°42' W 074°09'0 0.0
2017-Jan-12 13:33N 40°42' W 074°09'0 0.0
2017-Jan-12 12:33N 40°42' W 074°09'0 0.0
2017-Jan-12 11:33N 40°42' W 074°09'0 0.0
2017-Jan-12 10:34N 40°42' W 074°09'0 0.0
2017-Jan-12 09:34N 40°42' W 074°09'0 0.0
2017-Jan-12 08:34N 40°42' W 074°09'0 0.0
2017-Jan-12 07:33N 40°42' W 074°09'0 0.0
2017-Jan-12 06:33N 40°42' W 074°09'0 0.0
2017-Jan-12 05:33N 40°42' W 074°09'  

Dump ship's entire track history